Time;durP1;ratioP1;P1;durP2;ratioP2;P2;SDS_P1;SDS_P2;PMS_P1;PMS_P2;Temp;Humidity;BMP_temperature;BMP_pressure;BME280_temperature;BME280_humidity;BME280_pressure;Samples;Min_cycle;Max_cycle;Signal;HPM_P1;HPM_P2
2023/01/28 00:00:05;;;;;;;20.88;14.00;;;5.00;48.70;;;;;;5092128;28;20457;-74
2023/01/28 00:02:32;;;;;;;23.90;14.90;;;5.00;50.10;;;;;;5091716;28;20743;-74
2023/01/28 00:04:57;;;;;;;15.85;12.18;;;5.10;53.40;;;;;;5092343;28;20378;-74
2023/01/28 00:07:23;;;;;;;13.05;9.95;;;5.00;52.00;;;;;;5092261;28;20603;-75
2023/01/28 00:09:49;;;;;;;11.75;9.50;;;5.00;49.00;;;;;;5092245;28;20373;-75
2023/01/28 00:12:14;;;;;;;13.90;10.57;;;5.00;49.80;;;;;;5092130;28;20858;-75
2023/01/28 00:14:40;;;;;;;15.13;10.43;;;5.00;50.20;;;;;;5092564;28;20436;-74
2023/01/28 00:17:06;;;;;;;15.63;11.73;;;5.00;49.70;;;;;;5092001;28;21064;-74
2023/01/28 00:19:31;;;;;;;14.90;10.93;;;4.90;51.80;;;;;;5092158;28;20394;-74
2023/01/28 00:21:57;;;;;;;17.80;12.48;;;4.90;51.50;;;;;;5091948;28;20374;-75
2023/01/28 00:24:22;;;;;;;17.73;12.73;;;5.10;49.80;;;;;;5092079;28;20558;-75
2023/01/28 00:26:48;;;;;;;20.50;13.10;;;5.00;50.30;;;;;;5092196;28;20382;-73
2023/01/28 00:29:13;;;;;;;22.35;16.38;;;5.00;49.50;;;;;;5092382;28;20480;-74
2023/01/28 00:31:40;;;;;;;21.37;15.77;;;5.00;51.10;;;;;;5092523;28;20461;-74
2023/01/28 00:34:05;;;;;;;13.43;11.98;;;5.00;51.10;;;;;;5092598;28;20743;-75
2023/01/28 00:36:32;;;;;;;16.95;12.20;;;4.80;49.50;;;;;;5093956;28;20397;-75
2023/01/28 00:38:58;;;;;;;13.53;11.33;;;4.80;49.30;;;;;;5094372;28;20425;-76
2023/01/28 00:41:27;;;;;;;17.23;12.10;;;4.80;48.30;;;;;;5093055;28;20380;-73
2023/01/28 00:43:53;;;;;;;15.85;12.30;;;4.80;49.20;;;;;;5093209;28;20382;-76
2023/01/28 00:46:20;;;;;;;18.27;13.07;;;4.70;49.10;;;;;;5092556;28;20382;-74
2023/01/28 00:48:46;;;;;;;14.38;12.57;;;4.80;50.10;;;;;;5094570;28;20413;-74
2023/01/28 00:51:13;;;;;;;18.02;12.00;;;4.70;49.80;;;;;;5093401;28;20386;-72
2023/01/28 00:53:39;;;;;;;14.00;10.65;;;4.70;49.60;;;;;;5093489;28;20474;-74
2023/01/28 00:56:07;;;;;;;11.63;9.68;;;4.70;48.20;;;;;;5095824;28;20378;-73
2023/01/28 00:58:33;;;;;;;16.05;11.10;;;4.70;46.70;;;;;;5096799;28;20401;-74
2023/01/28 01:01:11;;;;;;;12.00;10.20;;;4.60;47.80;;;;;;5096322;28;20366;-74
2023/01/28 01:03:37;;;;;;;12.87;9.67;;;4.60;46.80;;;;;;5096922;28;20386;-74
2023/01/28 01:06:03;;;;;;;12.80;9.02;;;4.60;47.00;;;;;;5097480;28;20389;-74
2023/01/28 01:08:33;;;;;;;11.57;8.93;;;4.50;46.60;;;;;;5097998;28;20428;-75
2023/01/28 01:11:03;;;;;;;13.50;9.13;;;4.40;47.20;;;;;;5112069;28;20494;-73
2023/01/28 01:13:29;;;;;;;13.43;9.80;;;4.40;47.90;;;;;;5103260;28;20462;-74
2023/01/28 01:16:14;;;;;;;13.02;9.48;;;4.30;48.10;;;;;;5102136;28;20382;-74
2023/01/28 01:18:40;;;;;;;11.38;9.35;;;4.30;47.80;;;;;;5107393;28;21009;-75
2023/01/28 01:21:16;;;;;;;13.40;9.40;;;4.30;48.10;;;;;;5099102;28;20382;-74
2023/01/28 01:23:42;;;;;;;13.57;9.65;;;4.30;48.30;;;;;;5101262;28;20796;-73
2023/01/28 01:26:08;;;;;;;11.20;8.90;;;4.30;48.30;;;;;;5097456;28;20381;-74
2023/01/28 01:28:33;;;;;;;11.43;8.90;;;4.30;47.00;;;;;;5097057;28;20378;-75
2023/01/28 01:31:02;;;;;;;11.98;9.55;;;4.20;47.90;;;;;;5096039;28;20731;-74
2023/01/28 01:33:28;;;;;;;10.05;8.35;;;4.20;48.00;;;;;;5095225;28;20397;-75
2023/01/28 01:35:55;;;;;;;11.95;9.15;;;4.20;47.90;;;;;;5095158;28;20408;-73
2023/01/28 01:38:20;;;;;;;12.93;9.85;;;4.10;48.10;;;;;;5095422;28;20405;-74
2023/01/28 01:40:46;;;;;;;12.00;8.53;;;4.10;49.20;;;;;;5096297;28;20386;-75
2023/01/28 01:43:21;;;;;;;16.17;9.32;;;4.20;47.90;;;;;;5095831;28;20457;-74
2023/01/28 01:45:54;;;;;;;13.65;9.45;;;4.20;48.70;;;;;;5096316;28;20834;-74
2023/01/28 01:48:19;;;;;;;12.98;9.52;;;4.20;48.50;;;;;;5095108;28;20378;-75
2023/01/28 01:50:54;;;;;;;11.77;9.30;;;4.20;48.20;;;;;;5101755;22;20437;-72
2023/01/28 01:53:22;;;;;;;11.27;8.80;;;4.30;47.80;;;;;;5074302;28;20775;-71
2023/01/28 01:55:50;;;;;;;11.03;8.43;;;4.30;46.80;;;;;;5074262;28;20434;-72
2023/01/28 01:58:20;;;;;;;13.30;8.77;;;4.20;46.10;;;;;;5074176;28;20396;-72
2023/01/28 02:00:45;;;;;;;12.68;8.32;;;4.20;47.20;;;;;;5072177;28;20380;-74
2023/01/28 02:03:11;;;;;;;12.27;8.20;;;4.20;46.70;;;;;;5073751;28;20726;-71
2023/01/28 02:05:38;;;;;;;11.15;8.80;;;4.20;47.20;;;;;;5074689;28;20383;-73
2023/01/28 02:08:20;;;;;;;9.02;7.53;;;4.20;47.10;;;;;;5075773;28;20513;-74
2023/01/28 02:10:49;;;;;;;12.97;7.97;;;4.20;45.80;;;;;;5074643;28;20399;-74
2023/01/28 02:13:16;;;;;;;9.13;7.47;;;4.30;45.70;;;;;;5075386;28;20380;-74
2023/01/28 02:15:43;;;;;;;11.20;7.30;;;4.30;45.40;;;;;;5075005;28;20717;-72
2023/01/28 02:18:09;;;;;;;8.30;7.30;;;4.20;45.70;;;;;;5074254;28;20862;-72
2023/01/28 02:20:55;;;;;;;10.23;7.82;;;4.10;45.90;;;;;;5073089;28;20386;-72
2023/01/28 02:23:36;;;;;;;10.15;8.20;;;4.10;47.10;;;;;;5072994;28;20737;-71
2023/01/28 02:26:50;;;;;;;9.95;8.15;;;4.10;46.50;;;;;;5073065;28;20856;-71
2023/01/28 02:29:34;;;;;;;10.30;8.65;;;4.00;47.70;;;;;;5072820;28;20375;-71
2023/01/28 02:32:10;;;;;;;12.88;9.25;;;3.90;47.70;;;;;;5071261;28;20395;-72
2023/01/28 02:34:45;;;;;;;14.30;9.90;;;3.80;48.30;;;;;;5073206;28;20393;-71
2023/01/28 02:37:25;;;;;;;12.25;10.30;;;3.90;49.00;;;;;;5073525;28;20903;-72
2023/01/28 02:40:01;;;;;;;10.35;9.25;;;3.90;48.50;;;;;;5073451;28;20380;-72
2023/01/28 02:42:33;;;;;;;14.25;10.50;;;3.90;47.80;;;;;;5073312;28;20445;-72
2023/01/28 02:44:59;;;;;;;16.63;11.43;;;3.90;47.10;;;;;;5072407;28;20756;-72
2023/01/28 02:50:18;;;;;;;19.42;14.68;;;3.90;47.30;;;;;;5072272;28;20421;-72
2023/01/28 02:56:11;;;;;;;22.30;15.85;;;3.80;47.70;;;;;;5072201;28;20853;-72
2023/01/28 02:59:29;;;;;;;24.90;15.73;;;3.90;48.30;;;;;;5072406;28;20500;-72
2023/01/28 03:02:16;;;;;;;22.77;14.80;;;3.90;47.90;;;;;;5036737;28;20399;-72
2023/01/28 03:04:50;;;;;;;23.38;15.48;;;3.90;47.30;;;;;;5072479;28;20445;-72
2023/01/28 03:07:17;;;;;;;21.27;15.00;;;3.70;48.10;;;;;;5072380;28;20387;-71
2023/01/28 03:09:46;;;;;;;23.55;15.90;;;3.70;49.20;;;;;;5072180;28;20816;-71
2023/01/28 03:38:19;;;;;;;25.55;16.25;;;3.50;45.50;;;;;;5071649;28;20406;-72
2023/01/28 03:41:03;;;;;;;27.35;16.85;;;3.40;45.60;;;;;;5071799;28;20860;-72
2023/01/28 03:43:30;;;;;;;30.48;16.48;;;3.40;45.40;;;;;;5072501;28;20890;-73
2023/01/28 03:45:55;;;;;;;26.48;16.20;;;3.40;45.00;;;;;;5072164;28;20426;-72
2023/01/28 03:48:24;;;;;;;26.93;16.90;;;3.40;44.80;;;;;;5070910;28;20399;-72
2023/01/28 03:50:51;;;;;;;22.90;15.13;;;3.40;45.00;;;;;;5072210;28;20404;-73
2023/01/28 03:53:17;;;;;;;23.45;15.00;;;3.40;44.50;;;;;;5071787;28;20467;-72
2023/01/28 03:55:45;;;;;;;27.38;16.83;;;3.40;43.80;;;;;;5072090;28;20388;-72
2023/01/28 03:58:11;;;;;;;24.92;16.75;;;3.40;44.60;;;;;;5077329;28;20802;-71
2023/01/28 04:00:40;;;;;;;24.23;15.95;;;3.40;44.60;;;;;;5080308;28;20413;-72
2023/01/28 04:03:17;;;;;;;24.20;15.68;;;3.40;43.70;;;;;;5074578;28;20392;-70
2023/01/28 04:05:56;;;;;;;25.65;15.77;;;3.30;43.30;;;;;;5076450;28;20387;-72
2023/01/28 04:08:22;;;;;;;24.48;16.48;;;3.40;44.30;;;;;;5077938;28;20437;-71
2023/01/28 04:10:48;;;;;;;28.13;17.65;;;3.40;43.80;;;;;;5075844;28;20727;-73
2023/01/28 04:13:14;;;;;;;22.83;15.75;;;3.40;45.50;;;;;;5071254;28;20391;-71
2023/01/28 04:15:42;;;;;;;21.50;13.73;;;3.60;44.00;;;;;;5071742;28;20395;-71
2023/01/28 04:18:08;;;;;;;26.98;16.17;;;3.60;41.70;;;;;;5071663;28;20419;-71
2023/01/28 04:20:34;;;;;;;22.70;14.90;;;3.60;42.20;;;;;;5072112;28;20376;-73
2023/01/28 04:22:59;;;;;;;23.40;14.65;;;3.50;41.50;;;;;;5071996;28;20379;-71
2023/01/28 04:25:25;;;;;;;23.10;14.80;;;3.60;41.70;;;;;;5071860;28;20376;-72
2023/01/28 04:27:51;;;;;;;28.83;14.57;;;3.60;43.30;;;;;;5071355;28;20396;-71
2023/01/28 04:30:16;;;;;;;22.10;14.13;;;3.60;41.10;;;;;;5072392;28;20388;-71
2023/01/28 04:32:42;;;;;;;19.60;14.18;;;3.60;41.40;;;;;;5074916;28;20833;-72
2023/01/28 04:35:08;;;;;;;26.27;14.70;;;3.60;41.40;;;;;;5075320;28;20383;-72
2023/01/28 04:37:33;;;;;;;21.23;13.70;;;3.60;41.80;;;;;;5075774;28;20941;-70
2023/01/28 04:39:59;;;;;;;18.87;13.67;;;3.60;40.50;;;;;;5075373;28;20380;-74
2023/01/28 04:42:24;;;;;;;21.33;14.60;;;3.50;40.70;;;;;;5075536;28;20433;-72
2023/01/28 04:44:50;;;;;;;18.38;12.32;;;3.50;41.70;;;;;;5075367;28;20387;-72
2023/01/28 04:47:15;;;;;;;20.77;13.85;;;3.40;40.10;;;;;;5075978;28;20614;-72
2023/01/28 04:49:41;;;;;;;22.30;14.80;;;3.40;41.00;;;;;;5075946;28;20383;-72
2023/01/28 04:52:06;;;;;;;21.35;14.60;;;3.40;41.00;;;;;;5075554;28;20395;-73
2023/01/28 04:54:32;;;;;;;18.52;13.60;;;3.50;40.90;;;;;;5076124;28;20391;-71
2023/01/28 04:56:57;;;;;;;18.77;13.95;;;3.50;40.10;;;;;;5076766;28;20462;-72
2023/01/28 04:59:23;;;;;;;22.93;13.67;;;3.50;40.40;;;;;;5084212;28;20399;-72
2023/01/28 05:01:49;;;;;;;18.97;13.70;;;3.60;39.90;;;;;;5080941;28;20403;-71
2023/01/28 05:04:16;;;;;;;16.73;12.50;;;3.60;39.20;;;;;;5079650;28;20415;-72
2023/01/28 05:06:41;;;;;;;19.92;13.07;;;3.60;38.50;;;;;;5080734;28;20430;-72
2023/01/28 05:09:07;;;;;;;16.53;12.23;;;3.60;38.70;;;;;;5074524;28;20456;-72
2023/01/28 05:11:33;;;;;;;16.50;11.77;;;3.60;37.70;;;;;;5075088;28;20422;-72
2023/01/28 05:13:58;;;;;;;16.60;12.02;;;3.50;36.70;;;;;;5075907;28;20388;-72
2023/01/28 05:16:24;;;;;;;16.45;11.95;;;3.50;37.20;;;;;;5075481;28;20384;-72
2023/01/28 05:18:50;;;;;;;17.70;12.63;;;3.50;37.40;;;;;;5074755;28;20475;-72
2023/01/28 05:21:16;;;;;;;13.87;10.80;;;3.50;37.00;;;;;;5075468;28;20819;-72
2023/01/28 05:23:42;;;;;;;16.63;11.65;;;3.50;36.40;;;;;;5075725;28;20467;-72
2023/01/28 05:26:07;;;;;;;15.07;12.33;;;3.50;37.50;;;;;;5075766;28;20383;-73
2023/01/28 05:28:33;;;;;;;15.68;11.60;;;3.40;37.20;;;;;;5073743;28;20398;-71
2023/01/28 05:31:05;;;;;;;13.07;10.35;;;3.30;37.10;;;;;;5074020;28;20395;-72
2023/01/28 05:33:32;;;;;;;13.63;11.80;;;3.30;35.90;;;;;;5074799;28;20387;-71
2023/01/28 05:35:57;;;;;;;17.77;12.77;;;3.20;36.30;;;;;;5072841;28;20867;-73
2023/01/28 05:38:23;;;;;;;20.98;12.85;;;3.20;36.50;;;;;;5074618;28;20408;-72
2023/01/28 05:40:49;;;;;;;16.03;11.23;;;3.20;36.50;;;;;;5073810;28;20466;-71
2023/01/28 05:43:15;;;;;;;17.80;12.13;;;3.30;36.30;;;;;;5074075;28;20855;-72
2023/01/28 05:45:41;;;;;;;14.93;11.50;;;3.20;36.10;;;;;;5074580;28;20786;-71
2023/01/28 05:48:06;;;;;;;17.77;12.63;;;3.30;35.90;;;;;;5074573;28;20380;-71
2023/01/28 05:50:32;;;;;;;17.60;12.60;;;3.30;36.60;;;;;;5074564;28;20388;-73
2023/01/28 05:52:58;;;;;;;16.37;13.60;;;3.30;35.90;;;;;;5075106;28;20380;-74
2023/01/28 05:55:23;;;;;;;17.13;12.87;;;3.30;37.00;;;;;;5076355;28;20390;-72
2023/01/28 05:57:49;;;;;;;16.17;12.63;;;3.30;35.50;;;;;;5075987;28;20415;-72
2023/01/28 06:00:16;;;;;;;16.80;12.18;;;3.40;34.70;;;;;;5076367;28;20384;-72
2023/01/28 06:02:42;;;;;;;14.90;12.20;;;3.20;34.90;;;;;;5075436;28;20438;-72
2023/01/28 06:05:08;;;;;;;17.60;12.23;;;3.20;35.20;;;;;;5074024;28;20795;-71
2023/01/28 06:07:34;;;;;;;17.10;13.20;;;3.20;35.30;;;;;;5074455;28;20403;-72
2023/01/28 06:09:59;;;;;;;17.67;12.93;;;3.20;36.00;;;;;;5072785;28;20406;-72
2023/01/28 06:12:25;;;;;;;18.45;13.60;;;3.30;35.30;;;;;;5073346;28;20387;-71
2023/01/28 06:14:50;;;;;;;17.90;13.40;;;3.30;35.40;;;;;;5073352;28;20380;-72
2023/01/28 06:17:16;;;;;;;16.13;13.17;;;3.30;35.90;;;;;;5070438;28;20396;-73
2023/01/28 06:19:43;;;;;;;17.97;14.07;;;3.30;36.10;;;;;;5071938;28;20457;-71
2023/01/28 06:22:08;;;;;;;19.27;14.17;;;3.20;36.40;;;;;;5073200;28;20855;-72
2023/01/28 06:24:34;;;;;;;18.38;14.18;;;3.10;38.40;;;;;;5073803;28;20390;-72
2023/01/28 06:27:00;;;;;;;20.87;14.87;;;3.20;38.00;;;;;;5073154;28;20461;-70
2023/01/28 06:29:25;;;;;;;25.10;15.70;;;3.20;38.50;;;;;;5072571;28;20394;-72
2023/01/28 06:31:51;;;;;;;16.63;13.90;;;3.10;39.30;;;;;;5073615;28;20478;-72
2023/01/28 06:34:17;;;;;;;17.73;14.05;;;3.30;35.90;;;;;;5072657;28;20388;-72
2023/01/28 06:36:42;;;;;;;20.98;15.00;;;3.40;35.00;;;;;;5070814;28;20387;-71
2023/01/28 06:39:08;;;;;;;18.50;14.65;;;3.40;35.90;;;;;;5067095;28;20479;-71
2023/01/28 06:41:33;;;;;;;22.03;15.27;;;3.20;37.00;;;;;;5085862;28;20392;-72
2023/01/28 06:43:59;;;;;;;20.07;14.33;;;3.20;38.10;;;;;;5075165;28;20375;-71
2023/01/28 06:46:24;;;;;;;18.87;14.50;;;3.20;36.90;;;;;;5072762;28;20396;-71
2023/01/28 06:48:50;;;;;;;20.07;13.90;;;3.50;34.90;;;;;;5072789;28;20474;-71
2023/01/28 06:51:16;;;;;;;19.07;13.63;;;3.60;33.70;;;;;;5072383;28;20418;-71
2023/01/28 06:53:41;;;;;;;17.00;13.60;;;3.50;33.90;;;;;;5072646;28;20388;-71
2023/01/28 06:56:07;;;;;;;17.85;13.70;;;3.60;33.00;;;;;;5073584;28;20475;-71
2023/01/28 06:58:33;;;;;;;19.90;15.10;;;3.50;33.80;;;;;;5074156;28;20533;-71
2023/01/28 07:00:59;;;;;;;20.27;15.20;;;3.40;34.90;;;;;;5074411;28;20380;-71
2023/01/28 07:03:24;;;;;;;19.20;14.20;;;3.50;34.60;;;;;;5073824;28;20432;-72
2023/01/28 07:05:50;;;;;;;15.57;13.27;;;3.40;34.60;;;;;;5074219;28;20413;-72
2023/01/28 07:08:16;;;;;;;17.95;13.50;;;3.50;33.50;;;;;;5078803;28;20383;-72
2023/01/28 07:10:42;;;;;;;24.02;14.77;;;3.50;33.20;;;;;;5071124;28;20873;-72
2023/01/28 07:13:08;;;;;;;20.75;14.50;;;3.30;34.20;;;;;;5065337;28;20405;-72
2023/01/28 07:15:34;;;;;;;19.85;14.70;;;3.30;35.60;;;;;;5057132;28;20396;-71
2023/01/28 07:17:59;;;;;;;19.40;15.80;;;3.10;37.30;;;;;;5066454;28;20412;-71
2023/01/28 07:20:25;;;;;;;26.87;18.50;;;3.20;38.90;;;;;;5076550;28;20380;-70
2023/01/28 07:22:51;;;;;;;57.47;29.75;;;3.10;39.40;;;;;;5073614;28;20569;-71
2023/01/28 07:25:16;;;;;;;24.58;16.85;;;3.00;41.00;;;;;;5072866;28;20384;-71
2023/01/28 07:27:51;;;;;;;19.40;14.60;;;3.30;39.10;;;;;;5073601;28;20407;-71
2023/01/28 07:30:18;;;;;;;19.45;15.15;;;3.50;36.60;;;;;;5073821;28;20866;-71
2023/01/28 07:32:43;;;;;;;29.67;18.42;;;3.60;35.10;;;;;;5072861;28;20398;-71
2023/01/28 07:35:10;;;;;;;23.73;15.88;;;3.60;35.20;;;;;;5054894;28;20467;-71
2023/01/28 07:37:35;;;;;;;28.90;15.45;;;3.40;37.00;;;;;;5057372;28;20471;-70
2023/01/28 07:40:01;;;;;;;21.33;16.07;;;3.50;36.30;;;;;;5073337;28;20455;-70
2023/01/28 07:42:29;;;;;;;22.58;16.35;;;3.60;37.10;;;;;;5074048;28;20506;-71
2023/01/28 07:44:54;;;;;;;23.20;16.95;;;3.40;37.90;;;;;;5075724;28;20412;-72
2023/01/28 07:47:20;;;;;;;24.77;17.70;;;3.60;36.90;;;;;;5074880;28;20384;-72
2023/01/28 07:49:46;;;;;;;23.60;16.40;;;3.80;35.20;;;;;;5071613;28;20376;-69
2023/01/28 07:52:12;;;;;;;18.80;14.85;;;3.70;34.30;;;;;;5071566;28;20949;-71
2023/01/28 07:54:37;;;;;;;26.03;17.23;;;3.60;34.70;;;;;;5056921;28;20469;-72
2023/01/28 07:57:14;;;;;;;23.50;16.97;;;3.40;35.40;;;;;;5051538;28;20447;-71
2023/01/28 07:59:39;;;;;;;18.52;15.43;;;3.20;37.30;;;;;;5052083;28;20961;-71
2023/01/28 08:02:05;;;;;;;25.87;17.07;;;3.30;37.20;;;;;;5051838;28;20420;-70
2023/01/28 08:04:31;;;;;;;20.40;14.97;;;3.40;37.30;;;;;;5050563;28;20390;-72
2023/01/28 08:06:56;;;;;;;20.88;16.05;;;3.60;34.40;;;;;;5054750;28;20404;-72
2023/01/28 08:09:22;;;;;;;21.25;15.65;;;3.60;35.20;;;;;;5071695;28;20449;-72
2023/01/28 08:11:47;;;;;;;21.38;15.40;;;3.70;33.50;;;;;;5058427;28;20429;-73
2023/01/28 08:14:13;;;;;;;18.27;15.77;;;3.70;33.80;;;;;;5067238;28;20473;-72
2023/01/28 08:16:38;;;;;;;24.05;17.08;;;3.40;35.00;;;;;;5064298;28;20385;-71
2023/01/28 08:19:04;;;;;;;22.25;16.58;;;3.50;35.00;;;;;;5047436;28;20405;-71
2023/01/28 08:21:30;;;;;;;25.97;15.67;;;3.60;35.30;;;;;;5049586;28;20480;-74
2023/01/28 08:23:55;;;;;;;22.97;16.40;;;3.70;34.20;;;;;;5062966;28;20505;-74
2023/01/28 08:26:21;;;;;;;21.30;14.63;;;3.60;34.80;;;;;;5067565;28;20443;-74
2023/01/28 08:28:47;;;;;;;17.95;13.60;;;3.80;33.10;;;;;;5065284;28;20410;-74
2023/01/28 08:31:12;;;;;;;19.67;13.77;;;4.00;30.00;;;;;;5069360;28;20855;-72
2023/01/28 08:33:38;;;;;;;18.17;13.50;;;4.10;30.30;;;;;;5069181;28;20397;-72
2023/01/28 08:36:04;;;;;;;22.75;15.20;;;4.20;28.40;;;;;;5068765;28;20526;-73
2023/01/28 08:38:29;;;;;;;18.55;14.75;;;4.10;29.30;;;;;;5069288;28;20831;-72
2023/01/28 08:40:56;;;;;;;21.60;15.65;;;3.80;29.40;;;;;;5069003;28;20412;-72
2023/01/28 08:43:22;;;;;;;20.25;15.18;;;3.70;30.90;;;;;;5069020;28;20406;-73
2023/01/28 08:45:48;;;;;;;17.93;15.53;;;3.80;31.10;;;;;;5068059;28;20380;-74
2023/01/28 08:48:16;;;;;;;20.08;16.08;;;4.10;29.40;;;;;;5068579;28;20387;-73
2023/01/28 08:50:42;;;;;;;19.40;14.70;;;4.20;29.00;;;;;;5068917;28;20553;-72
2023/01/28 08:53:18;;;;;;;20.20;14.60;;;4.10;28.20;;;;;;5069233;28;20470;-73
2023/01/28 08:55:46;;;;;;;20.90;16.30;;;4.00;27.40;;;;;;5069366;28;20451;-74
2023/01/28 08:58:14;;;;;;;19.52;16.10;;;3.90;28.50;;;;;;5068990;28;20458;-73
2023/01/28 09:00:41;;;;;;;18.15;14.50;;;3.90;28.60;;;;;;5060889;28;20488;-74
2023/01/28 09:03:07;;;;;;;18.27;14.80;;;3.90;28.80;;;;;;5049388;28;20410;-74
2023/01/28 09:05:36;;;;;;;21.98;16.10;;;4.00;27.40;;;;;;5055513;28;20427;-73
2023/01/28 09:08:11;;;;;;;19.65;15.27;;;3.90;29.20;;;;;;5069628;28;20415;-76
2023/01/28 09:10:38;;;;;;;19.63;15.95;;;3.90;28.40;;;;;;5068703;28;20392;-76
2023/01/28 09:13:05;;;;;;;22.55;15.77;;;3.80;27.70;;;;;;5068709;28;20384;-75
2023/01/28 09:15:31;;;;;;;20.77;15.00;;;3.80;28.30;;;;;;5062820;28;20409;-72
2023/01/28 09:17:58;;;;;;;21.53;15.07;;;3.70;28.00;;;;;;5061075;28;20543;-72
2023/01/28 09:20:24;;;;;;;19.65;15.27;;;3.60;28.40;;;;;;5053951;28;20865;-73
2023/01/28 09:22:49;;;;;;;19.80;15.80;;;3.40;28.30;;;;;;5053787;28;20393;-73
2023/01/28 09:25:15;;;;;;;22.60;17.30;;;3.20;29.10;;;;;;5054925;28;20862;-74
2023/01/28 09:27:40;;;;;;;22.70;16.60;;;3.20;29.50;;;;;;5053662;28;20388;-73
2023/01/28 09:30:07;;;;;;;20.65;16.00;;;3.30;29.00;;;;;;5059398;28;20392;-73
2023/01/28 09:32:33;;;;;;;21.17;15.93;;;3.40;28.50;;;;;;5072647;28;20379;-72
2023/01/28 09:34:59;;;;;;;21.10;16.93;;;3.50;28.10;;;;;;5072402;28;20931;-73
2023/01/28 09:37:24;;;;;;;23.90;17.00;;;3.50;28.00;;;;;;5071620;28;20395;-72
2023/01/28 09:39:50;;;;;;;21.47;16.53;;;3.50;28.20;;;;;;5072498;28;20787;-74
2023/01/28 09:42:43;;;;;;;23.83;17.70;;;3.60;27.40;;;;;;5072599;28;20741;-74
2023/01/28 09:45:15;;;;;;;29.20;18.60;;;3.60;28.30;;;;;;5041114;28;20391;-71
2023/01/28 09:47:46;;;;;;;26.98;19.23;;;3.80;28.80;;;;;;5073013;28;20379;-75
2023/01/28 09:50:33;;;;;;;25.80;18.42;;;3.90;29.00;;;;;;5072010;28;20487;-76
2023/01/28 09:53:10;;;;;;;23.95;18.08;;;4.10;27.80;;;;;;5072383;28;20408;-74
2023/01/28 09:55:39;;;;;;;21.48;16.67;;;4.20;27.00;;;;;;5070732;28;20746;-74
2023/01/28 09:58:13;;;;;;;27.23;19.77;;;4.30;26.30;;;;;;5072228;28;20431;-73
2023/01/28 10:00:51;;;;;;;26.33;19.30;;;4.30;26.90;;;;;;5072666;28;20387;-74
2023/01/28 10:03:44;;;;;;;24.02;18.83;;;4.20;27.90;;;;;;5073149;28;20457;-75
2023/01/28 10:06:11;;;;;;;27.02;19.92;;;4.30;28.10;;;;;;5071512;28;20400;-75
2023/01/28 10:09:00;;;;;;;30.38;20.30;;;4.30;26.80;;;;;;5072210;28;20396;-73
2023/01/28 10:11:57;;;;;;;31.73;21.93;;;4.40;27.30;;;;;;5071229;28;20391;-75
2023/01/28 10:14:48;;;;;;;30.65;20.70;;;4.40;28.40;;;;;;5071019;28;20407;-75
2023/01/28 10:17:30;;;;;;;30.80;21.20;;;4.50;26.90;;;;;;5072101;28;20445;-76
2023/01/28 10:20:11;;;;;;;35.63;21.87;;;4.50;27.20;;;;;;5072445;28;20803;-74
2023/01/28 10:22:50;;;;;;;25.92;19.30;;;4.70;26.30;;;;;;5071484;28;20396;-76
2023/01/28 10:25:21;;;;;;;29.35;20.20;;;4.80;25.00;;;;;;5071691;28;20411;-76
2023/01/28 10:27:48;;;;;;;29.17;20.73;;;4.30;25.10;;;;;;5069141;28;20398;-74
2023/01/28 10:30:24;;;;;;;28.77;20.00;;;4.10;26.50;;;;;;5069517;28;20392;-76
2023/01/28 10:33:19;;;;;;;32.40;20.33;;;4.00;26.90;;;;;;5060873;28;20410;-75
2023/01/28 10:35:44;;;;;;;28.27;20.17;;;3.80;26.70;;;;;;5044440;28;20413;-74
2023/01/28 10:38:14;;;;;;;28.42;20.70;;;3.80;26.70;;;;;;5054729;28;20407;-76
2023/01/28 10:40:42;;;;;;;32.40;22.02;;;3.90;26.80;;;;;;5071509;28;20402;-74
2023/01/28 10:43:07;;;;;;;29.98;23.15;;;4.10;27.80;;;;;;5070573;28;20371;-76
2023/01/28 10:46:03;;;;;;;30.58;21.80;;;4.30;27.30;;;;;;5070396;28;20503;-75
2023/01/28 10:48:33;;;;;;;31.00;23.50;;;4.30;26.60;;;;;;5070924;28;20387;-73
2023/01/28 10:51:01;;;;;;;29.10;22.02;;;4.50;28.80;;;;;;5068256;28;20430;-72
2023/01/28 10:53:41;;;;;;;32.83;23.10;;;4.80;26.80;;;;;;5070991;28;20490;-74
2023/01/28 10:56:14;;;;;;;30.98;22.02;;;4.80;26.60;;;;;;5069739;28;20398;-72
2023/01/28 10:59:02;;;;;;;29.80;21.27;;;5.10;25.50;;;;;;5053885;28;20457;-73
2023/01/28 11:01:41;;;;;;;32.30;22.25;;;5.30;24.60;;;;;;5070951;28;20731;-75
2023/01/28 11:04:33;;;;;;;26.25;20.40;;;5.40;24.30;;;;;;5053138;28;20404;-75
2023/01/28 11:07:17;;;;;;;32.95;23.33;;;5.30;23.30;;;;;;5052715;28;20392;-74
2023/01/28 11:09:48;;;;;;;31.58;23.08;;;5.30;24.30;;;;;;5061554;28;20494;-73
2023/01/28 11:12:25;;;;;;;25.05;18.63;;;5.30;24.00;;;;;;5073100;28;20683;-75
2023/01/28 11:15:00;;;;;;;31.50;20.92;;;5.20;21.90;;;;;;5071621;28;20399;-73
2023/01/28 11:17:29;;;;;;;27.92;20.40;;;4.90;23.60;;;;;;5073012;28;20398;-74
2023/01/28 11:19:59;;;;;;;36.20;23.55;;;4.90;23.20;;;;;;5072711;28;20415;-75
2023/01/28 11:22:42;;;;;;;30.43;21.70;;;4.90;23.60;;;;;;5075582;28;20561;-74
2023/01/28 11:25:26;;;;;;;33.10;21.02;;;4.80;23.70;;;;;;5071073;28;20755;-74
2023/01/28 11:27:52;;;;;;;30.00;20.13;;;4.90;23.90;;;;;;5072566;28;20384;-74
2023/01/28 11:30:28;;;;;;;28.92;19.33;;;4.70;23.80;;;;;;5072959;28;20443;-76
2023/01/28 11:33:03;;;;;;;27.95;20.80;;;4.20;23.90;;;;;;5072566;28;20929;-74
2023/01/28 11:35:30;;;;;;;30.83;21.45;;;3.80;25.40;;;;;;5072789;28;20831;-75
2023/01/28 11:37:57;;;;;;;32.83;23.17;;;3.90;26.20;;;;;;5070487;28;20406;-74
2023/01/28 11:40:23;;;;;;;29.83;21.80;;;3.90;27.30;;;;;;5072893;28;20376;-73
2023/01/28 11:42:51;;;;;;;36.47;25.10;;;4.00;26.30;;;;;;5072960;28;20380;-75
2023/01/28 11:45:25;;;;;;;35.90;25.05;;;4.00;27.80;;;;;;5074258;28;20392;-71
2023/01/28 11:48:01;;;;;;;38.03;24.30;;;4.20;28.00;;;;;;5083327;28;20371;-73
2023/01/28 11:50:49;;;;;;;34.30;23.25;;;4.40;26.50;;;;;;5076087;28;20399;-74
2023/01/28 11:53:21;;;;;;;30.33;21.30;;;4.50;26.50;;;;;;5072110;28;20587;-72
2023/01/28 11:56:11;;;;;;;36.73;23.80;;;4.60;24.60;;;;;;5072508;28;20376;-74
2023/01/28 11:58:59;;;;;;;30.05;22.42;;;4.70;25.00;;;;;;5071834;28;20403;-72
2023/01/28 12:01:30;;;;;;;33.22;20.73;;;4.70;24.50;;;;;;5072457;28;20463;-74
2023/01/28 12:04:20;;;;;;;30.00;21.90;;;4.70;23.50;;;;;;5075648;28;20473;-72
2023/01/28 12:07:07;;;;;;;28.70;20.58;;;4.50;23.70;;;;;;5084533;28;20409;-73
2023/01/28 12:09:50;;;;;;;32.67;22.42;;;4.40;24.10;;;;;;5076306;28;20392;-74
2023/01/28 12:12:25;;;;;;;34.73;23.10;;;4.20;24.80;;;;;;5074780;28;20407;-74
2023/01/28 12:15:08;;;;;;;31.73;22.33;;;4.00;25.40;;;;;;5073183;28;20760;-74
2023/01/28 12:18:02;;;;;;;32.58;22.45;;;3.90;25.70;;;;;;5071668;28;20380;-73
2023/01/28 12:20:37;;;;;;;41.38;25.05;;;3.80;25.50;;;;;;5072296;28;20386;-74
2023/01/28 12:23:27;;;;;;;33.47;24.05;;;3.80;26.60;;;;;;5071621;28;20384;-74
2023/01/28 12:26:15;;;;;;;38.13;24.85;;;4.00;26.20;;;;;;5071724;28;20464;-74
2023/01/28 12:28:50;;;;;;;41.45;25.80;;;4.10;27.50;;;;;;5072275;28;20372;-75
2023/01/28 12:31:46;;;;;;;36.08;25.48;;;4.20;28.00;;;;;;5071110;28;20529;-73
2023/01/28 12:34:31;;;;;;;29.75;22.17;;;4.40;28.40;;;;;;5071555;28;20376;-72
2023/01/28 12:37:33;;;;;;;34.67;25.00;;;4.80;24.20;;;;;;5071851;28;20383;-74
2023/01/28 12:40:15;;;;;;;33.80;23.90;;;4.90;24.70;;;;;;5071707;28;20404;-72
2023/01/28 12:43:00;;;;;;;37.88;25.08;;;4.90;24.60;;;;;;5071579;28;20491;-74
2023/01/28 12:45:39;;;;;;;34.07;22.20;;;5.00;25.10;;;;;;5071251;28;20536;-74
2023/01/28 12:48:16;;;;;;;25.52;19.75;;;5.10;23.00;;;;;;5071977;28;20387;-74
2023/01/28 12:51:12;;;;;;;28.40;21.10;;;5.20;20.80;;;;;;5073402;28;20771;-73
2023/01/28 12:54:05;;;;;;;32.97;23.30;;;5.10;22.30;;;;;;5076306;28;20422;-74
2023/01/28 12:56:35;;;;;;;25.98;20.67;;;5.00;23.00;;;;;;5075906;28;20379;-73
2023/01/28 12:59:09;;;;;;;32.23;22.23;;;5.30;21.40;;;;;;5077516;28;20452;-74
2023/01/28 13:01:37;;;;;;;35.78;25.45;;;5.30;22.10;;;;;;5076969;28;20379;-75
2023/01/28 13:04:14;;;;;;;29.05;22.60;;;5.30;23.90;;;;;;5084560;28;20460;-72
2023/01/28 13:06:49;;;;;;;25.50;20.80;;;4.90;24.20;;;;;;5088906;28;20383;-73
2023/01/28 13:09:25;;;;;;;40.50;26.50;;;4.80;24.70;;;;;;5095761;28;20371;-73
2023/01/28 13:11:55;;;;;;;38.00;25.10;;;4.60;27.00;;;;;;5081300;28;20900;-75
2023/01/28 13:14:29;;;;;;;32.15;23.08;;;4.50;28.30;;;;;;5075312;28;20471;-72
2023/01/28 13:16:55;;;;;;;28.02;21.30;;;4.40;27.70;;;;;;5074810;28;20372;-73
2023/01/28 13:19:24;;;;;;;29.38;20.77;;;4.30;25.90;;;;;;5075437;28;20411;-75
2023/01/28 13:21:50;;;;;;;27.67;20.58;;;4.30;25.70;;;;;;5073890;28;20840;-74
2023/01/28 13:24:15;;;;;;;28.85;21.15;;;4.30;25.70;;;;;;5075128;28;20387;-73
2023/01/28 13:26:54;;;;;;;28.08;20.95;;;4.10;25.30;;;;;;5075381;28;20386;-72